sensor_id;sensor_type;location;lat;lon;timestamp;P1;durP1;ratioP1;P2;durP2;ratioP2
46348;SDS011;32057;47.830;19.046;2023-03-12T00:01:09;0.88;;;0.88;;
46348;SDS011;32057;47.830;19.046;2023-03-12T00:03:45;1.10;;;1.02;;
46348;SDS011;32057;47.830;19.046;2023-03-12T00:06:11;1.13;;;1.02;;
46348;SDS011;32057;47.830;19.046;2023-03-12T00:08:37;1.02;;;0.93;;
46348;SDS011;32057;47.830;19.046;2023-03-12T00:11:10;0.65;;;0.60;;
46348;SDS011;32057;47.830;19.046;2023-03-12T00:13:38;1.27;;;0.60;;
46348;SDS011;32057;47.830;19.046;2023-03-12T00:16:05;0.93;;;0.73;;
46348;SDS011;32057;47.830;19.046;2023-03-12T00:18:32;2.72;;;0.82;;
46348;SDS011;32057;47.830;19.046;2023-03-12T00:20:58;1.02;;;1.02;;
46348;SDS011;32057;47.830;19.046;2023-03-12T00:23:23;2.78;;;1.40;;
46348;SDS011;32057;47.830;19.046;2023-03-12T00:25:48;0.73;;;0.73;;
46348;SDS011;32057;47.830;19.046;2023-03-12T00:28:14;1.40;;;1.13;;
46348;SDS011;32057;47.830;19.046;2023-03-12T00:30:39;4.88;;;0.88;;
46348;SDS011;32057;47.830;19.046;2023-03-12T00:33:05;0.65;;;0.50;;
46348;SDS011;32057;47.830;19.046;2023-03-12T00:35:30;1.50;;;0.60;;
46348;SDS011;32057;47.830;19.046;2023-03-12T00:37:56;1.25;;;1.10;;
46348;SDS011;32057;47.830;19.046;2023-03-12T00:40:22;0.70;;;0.70;;
46348;SDS011;32057;47.830;19.046;2023-03-12T00:42:47;1.00;;;0.95;;
46348;SDS011;32057;47.830;19.046;2023-03-12T00:45:12;1.65;;;1.08;;
46348;SDS011;32057;47.830;19.046;2023-03-12T00:47:38;1.77;;;1.50;;
46348;SDS011;32057;47.830;19.046;2023-03-12T00:50:03;0.73;;;0.73;;
46348;SDS011;32057;47.830;19.046;2023-03-12T00:52:29;0.55;;;0.52;;
46348;SDS011;32057;47.830;19.046;2023-03-12T00:54:55;0.55;;;0.55;;
46348;SDS011;32057;47.830;19.046;2023-03-12T00:57:22;1.50;;;1.40;;
46348;SDS011;32057;47.830;19.046;2023-03-12T00:59:48;1.45;;;1.30;;
46348;SDS011;32057;47.830;19.046;2023-03-12T01:02:13;0.77;;;0.77;;
46348;SDS011;32057;47.830;19.046;2023-03-12T01:04:39;0.95;;;0.85;;
46348;SDS011;32057;47.830;19.046;2023-03-12T01:07:05;1.35;;;1.30;;
46348;SDS011;32057;47.830;19.046;2023-03-12T01:09:30;1.02;;;1.00;;
46348;SDS011;32057;47.830;19.046;2023-03-12T01:11:55;0.50;;;0.50;;
46348;SDS011;32057;47.830;19.046;2023-03-12T01:14:21;4.60;;;1.80;;
46348;SDS011;32057;47.830;19.046;2023-03-12T01:16:46;0.88;;;0.88;;
46348;SDS011;32057;47.830;19.046;2023-03-12T01:19:12;1.60;;;0.90;;
46348;SDS011;32057;47.830;19.046;2023-03-12T01:21:37;0.77;;;0.77;;
46348;SDS011;32057;47.830;19.046;2023-03-12T01:24:03;0.98;;;0.75;;
46348;SDS011;32057;47.830;19.046;2023-03-12T01:26:28;2.38;;;1.08;;
46348;SDS011;32057;47.830;19.046;2023-03-12T01:28:54;0.57;;;0.55;;
46348;SDS011;32057;47.830;19.046;2023-03-12T01:31:19;0.50;;;0.50;;
46348;SDS011;32057;47.830;19.046;2023-03-12T01:33:49;1.60;;;1.02;;
46348;SDS011;32057;47.830;19.046;2023-03-12T01:36:18;0.65;;;0.65;;
46348;SDS011;32057;47.830;19.046;2023-03-12T01:38:54;1.15;;;0.85;;
46348;SDS011;32057;47.830;19.046;2023-03-12T01:41:23;0.43;;;0.43;;
46348;SDS011;32057;47.830;19.046;2023-03-12T01:43:49;0.55;;;0.55;;
46348;SDS011;32057;47.830;19.046;2023-03-12T01:48:52;0.57;;;0.45;;
46348;SDS011;32057;47.830;19.046;2023-03-12T01:51:24;0.77;;;0.75;;
46348;SDS011;32057;47.830;19.046;2023-03-12T01:53:55;2.70;;;1.75;;
46348;SDS011;32057;47.830;19.046;2023-03-12T01:56:24;0.30;;;0.30;;
46348;SDS011;32057;47.830;19.046;2023-03-12T01:58:52;1.60;;;1.02;;
46348;SDS011;32057;47.830;19.046;2023-03-12T02:01:22;1.23;;;1.08;;
46348;SDS011;32057;47.830;19.046;2023-03-12T02:03:50;0.50;;;0.50;;
46348;SDS011;32057;47.830;19.046;2023-03-12T02:06:17;1.10;;;0.93;;
46348;SDS011;32057;47.830;19.046;2023-03-12T02:08:50;0.73;;;0.73;;
46348;SDS011;32057;47.830;19.046;2023-03-12T02:11:17;0.73;;;0.73;;
46348;SDS011;32057;47.830;19.046;2023-03-12T02:13:42;1.17;;;1.08;;
46348;SDS011;32057;47.830;19.046;2023-03-12T02:16:08;0.93;;;0.85;;
46348;SDS011;32057;47.830;19.046;2023-03-12T02:18:34;1.08;;;0.70;;
46348;SDS011;32057;47.830;19.046;2023-03-12T02:26:32;0.82;;;0.82;;
46348;SDS011;32057;47.830;19.046;2023-03-12T02:29:00;0.30;;;0.30;;
46348;SDS011;32057;47.830;19.046;2023-03-12T02:31:27;1.08;;;0.88;;
46348;SDS011;32057;47.830;19.046;2023-03-12T02:33:56;0.63;;;0.63;;
46348;SDS011;32057;47.830;19.046;2023-03-12T02:36:22;1.10;;;1.10;;
46348;SDS011;32057;47.830;19.046;2023-03-12T02:38:48;1.67;;;0.85;;
46348;SDS011;32057;47.830;19.046;2023-03-12T02:43:48;0.68;;;0.65;;
46348;SDS011;32057;47.830;19.046;2023-03-12T02:46:37;1.33;;;0.95;;
46348;SDS011;32057;47.830;19.046;2023-03-12T02:49:08;0.47;;;0.47;;
46348;SDS011;32057;47.830;19.046;2023-03-12T02:51:35;0.20;;;0.20;;
46348;SDS011;32057;47.830;19.046;2023-03-12T02:54:01;0.40;;;0.40;;
46348;SDS011;32057;47.830;19.046;2023-03-12T02:56:27;0.50;;;0.50;;
46348;SDS011;32057;47.830;19.046;2023-03-12T02:58:53;1.13;;;0.90;;
46348;SDS011;32057;47.830;19.046;2023-03-12T03:01:18;1.23;;;0.82;;
46348;SDS011;32057;47.830;19.046;2023-03-12T03:03:44;0.70;;;0.70;;
46348;SDS011;32057;47.830;19.046;2023-03-12T03:06:10;0.70;;;0.70;;
46348;SDS011;32057;47.830;19.046;2023-03-12T03:08:36;0.80;;;0.80;;
46348;SDS011;32057;47.830;19.046;2023-03-12T03:11:02;0.85;;;0.85;;
46348;SDS011;32057;47.830;19.046;2023-03-12T03:13:31;0.73;;;0.70;;
46348;SDS011;32057;47.830;19.046;2023-03-12T03:15:57;0.30;;;0.30;;
46348;SDS011;32057;47.830;19.046;2023-03-12T03:18:24;0.32;;;0.32;;
46348;SDS011;32057;47.830;19.046;2023-03-12T03:21:05;0.60;;;0.60;;
46348;SDS011;32057;47.830;19.046;2023-03-12T03:23:32;1.27;;;0.40;;
46348;SDS011;32057;47.830;19.046;2023-03-12T03:25:58;0.40;;;0.40;;
46348;SDS011;32057;47.830;19.046;2023-03-12T03:28:27;0.55;;;0.50;;
46348;SDS011;32057;47.830;19.046;2023-03-12T03:30:54;1.33;;;0.50;;
46348;SDS011;32057;47.830;19.046;2023-03-12T03:33:32;1.17;;;1.02;;
46348;SDS011;32057;47.830;19.046;2023-03-12T03:35:59;1.05;;;1.00;;
46348;SDS011;32057;47.830;19.046;2023-03-12T03:38:26;1.20;;;1.00;;
46348;SDS011;32057;47.830;19.046;2023-03-12T03:40:52;0.75;;;0.75;;
46348;SDS011;32057;47.830;19.046;2023-03-12T03:43:18;0.60;;;0.60;;
46348;SDS011;32057;47.830;19.046;2023-03-12T03:45:44;0.85;;;0.82;;
46348;SDS011;32057;47.830;19.046;2023-03-12T03:48:10;1.52;;;1.42;;
46348;SDS011;32057;47.830;19.046;2023-03-12T03:50:39;1.88;;;1.05;;
46348;SDS011;32057;47.830;19.046;2023-03-12T03:53:06;1.50;;;0.38;;
46348;SDS011;32057;47.830;19.046;2023-03-12T03:55:35;0.77;;;0.77;;
46348;SDS011;32057;47.830;19.046;2023-03-12T03:58:02;0.80;;;0.80;;
46348;SDS011;32057;47.830;19.046;2023-03-12T04:00:27;0.22;;;0.22;;
46348;SDS011;32057;47.830;19.046;2023-03-12T04:02:53;1.05;;;0.47;;
46348;SDS011;32057;47.830;19.046;2023-03-12T04:05:19;1.17;;;1.08;;
46348;SDS011;32057;47.830;19.046;2023-03-12T04:07:45;2.13;;;1.30;;
46348;SDS011;32057;47.830;19.046;2023-03-12T04:10:10;0.65;;;0.65;;
46348;SDS011;32057;47.830;19.046;2023-03-12T04:12:36;0.60;;;0.60;;
46348;SDS011;32057;47.830;19.046;2023-03-12T04:15:01;0.73;;;0.30;;
46348;SDS011;32057;47.830;19.046;2023-03-12T04:17:27;1.02;;;0.60;;
46348;SDS011;32057;47.830;19.046;2023-03-12T04:19:52;0.73;;;0.60;;
46348;SDS011;32057;47.830;19.046;2023-03-12T04:22:18;0.88;;;0.88;;
46348;SDS011;32057;47.830;19.046;2023-03-12T04:24:43;1.02;;;0.93;;
46348;SDS011;32057;47.830;19.046;2023-03-12T04:27:09;0.40;;;0.40;;
46348;SDS011;32057;47.830;19.046;2023-03-12T04:29:34;3.35;;;0.68;;
46348;SDS011;32057;47.830;19.046;2023-03-12T04:32:00;2.50;;;1.35;;
46348;SDS011;32057;47.830;19.046;2023-03-12T04:34:25;0.85;;;0.85;;
46348;SDS011;32057;47.830;19.046;2023-03-12T04:36:51;0.95;;;0.85;;
46348;SDS011;32057;47.830;19.046;2023-03-12T04:39:19;0.50;;;0.50;;
46348;SDS011;32057;47.830;19.046;2023-03-12T04:41:45;2.33;;;0.63;;
46348;SDS011;32057;47.830;19.046;2023-03-12T04:44:11;0.80;;;0.80;;
46348;SDS011;32057;47.830;19.046;2023-03-12T04:46:37;0.45;;;0.45;;
46348;SDS011;32057;47.830;19.046;2023-03-12T04:49:03;0.30;;;0.30;;
46348;SDS011;32057;47.830;19.046;2023-03-12T04:51:29;1.02;;;0.95;;
46348;SDS011;32057;47.830;19.046;2023-03-12T04:53:56;0.50;;;0.50;;
46348;SDS011;32057;47.830;19.046;2023-03-12T04:56:21;0.40;;;0.40;;
46348;SDS011;32057;47.830;19.046;2023-03-12T04:58:47;0.55;;;0.55;;
46348;SDS011;32057;47.830;19.046;2023-03-12T05:01:35;0.60;;;0.60;;
46348;SDS011;32057;47.830;19.046;2023-03-12T05:04:00;1.17;;;0.82;;
46348;SDS011;32057;47.830;19.046;2023-03-12T05:06:26;1.95;;;1.13;;
46348;SDS011;32057;47.830;19.046;2023-03-12T05:08:52;0.80;;;0.80;;
46348;SDS011;32057;47.830;19.046;2023-03-12T05:11:17;0.77;;;0.77;;
46348;SDS011;32057;47.830;19.046;2023-03-12T05:13:44;0.93;;;0.93;;
46348;SDS011;32057;47.830;19.046;2023-03-12T05:16:10;1.10;;;1.02;;
46348;SDS011;32057;47.830;19.046;2023-03-12T05:18:36;1.30;;;0.43;;
46348;SDS011;32057;47.830;19.046;2023-03-12T05:21:03;0.88;;;0.70;;
46348;SDS011;32057;47.830;19.046;2023-03-12T05:23:35;0.60;;;0.60;;
46348;SDS011;32057;47.830;19.046;2023-03-12T05:26:03;0.90;;;0.73;;
46348;SDS011;32057;47.830;19.046;2023-03-12T05:28:31;1.27;;;1.20;;
46348;SDS011;32057;47.830;19.046;2023-03-12T05:30:57;1.30;;;0.85;;
46348;SDS011;32057;47.830;19.046;2023-03-12T05:33:24;0.55;;;0.55;;
46348;SDS011;32057;47.830;19.046;2023-03-12T05:35:51;0.70;;;0.50;;
46348;SDS011;32057;47.830;19.046;2023-03-12T05:38:17;0.77;;;0.77;;
46348;SDS011;32057;47.830;19.046;2023-03-12T05:40:42;0.60;;;0.60;;
46348;SDS011;32057;47.830;19.046;2023-03-12T05:43:14;3.08;;;0.70;;
46348;SDS011;32057;47.830;19.046;2023-03-12T05:45:40;0.55;;;0.55;;
46348;SDS011;32057;47.830;19.046;2023-03-12T05:48:05;0.50;;;0.50;;
46348;SDS011;32057;47.830;19.046;2023-03-12T05:50:30;1.45;;;1.08;;
46348;SDS011;32057;47.830;19.046;2023-03-12T05:52:56;0.85;;;0.70;;
46348;SDS011;32057;47.830;19.046;2023-03-12T05:55:21;1.08;;;0.65;;
46348;SDS011;32057;47.830;19.046;2023-03-12T05:57:47;1.08;;;1.02;;
46348;SDS011;32057;47.830;19.046;2023-03-12T06:00:12;1.88;;;0.57;;
46348;SDS011;32057;47.830;19.046;2023-03-12T06:02:39;1.13;;;1.00;;
46348;SDS011;32057;47.830;19.046;2023-03-12T06:05:05;1.95;;;1.85;;
46348;SDS011;32057;47.830;19.046;2023-03-12T06:07:30;0.85;;;0.85;;
46348;SDS011;32057;47.830;19.046;2023-03-12T06:09:56;1.42;;;1.15;;
46348;SDS011;32057;47.830;19.046;2023-03-12T06:12:23;0.98;;;0.98;;
46348;SDS011;32057;47.830;19.046;2023-03-12T06:14:49;1.75;;;1.40;;
46348;SDS011;32057;47.830;19.046;2023-03-12T06:17:14;0.95;;;0.52;;
46348;SDS011;32057;47.830;19.046;2023-03-12T06:19:40;0.70;;;0.70;;
46348;SDS011;32057;47.830;19.046;2023-03-12T06:22:05;0.75;;;0.75;;
46348;SDS011;32057;47.830;19.046;2023-03-12T06:24:31;0.77;;;0.73;;
46348;SDS011;32057;47.830;19.046;2023-03-12T06:26:56;1.58;;;0.80;;
46348;SDS011;32057;47.830;19.046;2023-03-12T06:29:21;1.27;;;1.25;;
46348;SDS011;32057;47.830;19.046;2023-03-12T06:31:47;1.73;;;1.63;;
46348;SDS011;32057;47.830;19.046;2023-03-12T06:34:16;2.97;;;2.67;;
46348;SDS011;32057;47.830;19.046;2023-03-12T06:36:42;2.72;;;2.25;;
46348;SDS011;32057;47.830;19.046;2023-03-12T06:39:08;1.98;;;1.88;;
46348;SDS011;32057;47.830;19.046;2023-03-12T06:41:34;2.80;;;1.88;;
46348;SDS011;32057;47.830;19.046;2023-03-12T06:44:00;2.85;;;1.23;;
46348;SDS011;32057;47.830;19.046;2023-03-12T06:46:29;1.48;;;1.38;;
46348;SDS011;32057;47.830;19.046;2023-03-12T06:48:55;3.13;;;2.00;;
46348;SDS011;32057;47.830;19.046;2023-03-12T06:51:21;3.17;;;2.22;;
46348;SDS011;32057;47.830;19.046;2023-03-12T06:53:46;6.97;;;3.03;;
46348;SDS011;32057;47.830;19.046;2023-03-12T06:56:12;3.60;;;1.90;;
46348;SDS011;32057;47.830;19.046;2023-03-12T06:58:38;4.65;;;2.60;;
46348;SDS011;32057;47.830;19.046;2023-03-12T07:01:04;3.78;;;2.42;;
46348;SDS011;32057;47.830;19.046;2023-03-12T07:03:29;2.97;;;2.45;;
46348;SDS011;32057;47.830;19.046;2023-03-12T07:05:55;4.65;;;3.25;;
46348;SDS011;32057;47.830;19.046;2023-03-12T07:08:22;2.35;;;1.88;;
46348;SDS011;32057;47.830;19.046;2023-03-12T07:10:47;3.45;;;2.28;;
46348;SDS011;32057;47.830;19.046;2023-03-12T07:13:13;7.53;;;3.47;;
46348;SDS011;32057;47.830;19.046;2023-03-12T07:15:39;2.20;;;2.00;;
46348;SDS011;32057;47.830;19.046;2023-03-12T07:18:08;2.42;;;2.22;;
46348;SDS011;32057;47.830;19.046;2023-03-12T07:20:35;2.33;;;2.13;;
46348;SDS011;32057;47.830;19.046;2023-03-12T07:23:02;7.05;;;2.67;;
46348;SDS011;32057;47.830;19.046;2023-03-12T07:25:28;5.00;;;2.20;;
46348;SDS011;32057;47.830;19.046;2023-03-12T07:27:54;2.15;;;1.77;;
46348;SDS011;32057;47.830;19.046;2023-03-12T07:30:19;3.90;;;2.72;;
46348;SDS011;32057;47.830;19.046;2023-03-12T07:32:45;2.42;;;1.77;;
46348;SDS011;32057;47.830;19.046;2023-03-12T07:35:11;2.58;;;2.38;;
46348;SDS011;32057;47.830;19.046;2023-03-12T07:37:36;3.78;;;2.33;;
46348;SDS011;32057;47.830;19.046;2023-03-12T07:40:02;3.10;;;2.13;;
46348;SDS011;32057;47.830;19.046;2023-03-12T07:42:31;7.88;;;3.65;;
46348;SDS011;32057;47.830;19.046;2023-03-12T07:44:57;5.05;;;3.20;;
46348;SDS011;32057;47.830;19.046;2023-03-12T07:47:22;5.60;;;3.58;;
46348;SDS011;32057;47.830;19.046;2023-03-12T07:49:48;8.57;;;3.17;;
46348;SDS011;32057;47.830;19.046;2023-03-12T07:52:13;8.07;;;2.47;;
46348;SDS011;32057;47.830;19.046;2023-03-12T07:54:40;4.38;;;2.38;;
46348;SDS011;32057;47.830;19.046;2023-03-12T07:57:05;3.70;;;2.17;;
46348;SDS011;32057;47.830;19.046;2023-03-12T07:59:31;2.65;;;2.22;;
46348;SDS011;32057;47.830;19.046;2023-03-12T08:01:57;2.25;;;1.60;;
46348;SDS011;32057;47.830;19.046;2023-03-12T08:04:26;1.80;;;1.67;;
46348;SDS011;32057;47.830;19.046;2023-03-12T08:06:53;2.33;;;2.13;;
46348;SDS011;32057;47.830;19.046;2023-03-12T08:09:19;2.72;;;1.95;;
46348;SDS011;32057;47.830;19.046;2023-03-12T08:11:44;1.83;;;1.35;;
46348;SDS011;32057;47.830;19.046;2023-03-12T08:14:10;2.35;;;2.15;;
46348;SDS011;32057;47.830;19.046;2023-03-12T08:16:35;1.50;;;1.40;;
46348;SDS011;32057;47.830;19.046;2023-03-12T08:19:01;2.00;;;1.80;;
46348;SDS011;32057;47.830;19.046;2023-03-12T08:21:26;2.15;;;1.75;;
46348;SDS011;32057;47.830;19.046;2023-03-12T08:23:51;1.50;;;1.40;;
46348;SDS011;32057;47.830;19.046;2023-03-12T08:26:17;1.13;;;1.13;;
46348;SDS011;32057;47.830;19.046;2023-03-12T08:28:42;2.25;;;1.75;;
46348;SDS011;32057;47.830;19.046;2023-03-12T08:31:08;5.55;;;1.75;;
46348;SDS011;32057;47.830;19.046;2023-03-12T08:33:34;2.47;;;2.28;;
46348;SDS011;32057;47.830;19.046;2023-03-12T08:36:00;2.38;;;2.22;;
46348;SDS011;32057;47.830;19.046;2023-03-12T08:38:25;3.35;;;2.97;;
46348;SDS011;32057;47.830;19.046;2023-03-12T08:40:55;5.25;;;2.15;;
46348;SDS011;32057;47.830;19.046;2023-03-12T08:43:21;1.60;;;1.48;;
46348;SDS011;32057;47.830;19.046;2023-03-12T08:45:51;2.15;;;1.95;;
46348;SDS011;32057;47.830;19.046;2023-03-12T08:48:18;1.33;;;1.20;;
46348;SDS011;32057;47.830;19.046;2023-03-12T08:50:43;3.72;;;1.98;;
46348;SDS011;32057;47.830;19.046;2023-03-12T08:53:09;3.15;;;1.65;;
46348;SDS011;32057;47.830;19.046;2023-03-12T08:55:34;1.17;;;1.08;;
46348;SDS011;32057;47.830;19.046;2023-03-12T08:58:00;3.63;;;2.03;;
46348;SDS011;32057;47.830;19.046;2023-03-12T09:00:25;1.73;;;1.60;;
46348;SDS011;32057;47.830;19.046;2023-03-12T09:02:50;2.63;;;1.85;;
46348;SDS011;32057;47.830;19.046;2023-03-12T09:05:17;2.03;;;1.25;;
46348;SDS011;32057;47.830;19.046;2023-03-12T09:07:44;1.83;;;1.60;;
46348;SDS011;32057;47.830;19.046;2023-03-12T09:10:10;2.95;;;2.03;;
46348;SDS011;32057;47.830;19.046;2023-03-12T09:12:35;1.95;;;1.85;;
46348;SDS011;32057;47.830;19.046;2023-03-12T09:15:01;2.20;;;2.00;;
46348;SDS011;32057;47.830;19.046;2023-03-12T09:17:27;0.93;;;0.93;;
46348;SDS011;32057;47.830;19.046;2023-03-12T09:19:53;1.13;;;1.02;;
46348;SDS011;32057;47.830;19.046;2023-03-12T09:22:19;1.08;;;1.08;;
46348;SDS011;32057;47.830;19.046;2023-03-12T09:24:44;2.42;;;2.20;;
46348;SDS011;32057;47.830;19.046;2023-03-12T09:27:09;1.60;;;1.50;;
46348;SDS011;32057;47.830;19.046;2023-03-12T09:29:35;3.40;;;2.28;;
46348;SDS011;32057;47.830;19.046;2023-03-12T09:32:00;1.27;;;1.17;;
46348;SDS011;32057;47.830;19.046;2023-03-12T09:34:26;2.35;;;1.95;;
46348;SDS011;32057;47.830;19.046;2023-03-12T09:36:51;3.08;;;1.63;;
46348;SDS011;32057;47.830;19.046;2023-03-12T09:39:17;2.25;;;1.92;;
46348;SDS011;32057;47.830;19.046;2023-03-12T09:41:43;0.95;;;0.95;;
46348;SDS011;32057;47.830;19.046;2023-03-12T09:49:52;1.63;;;1.25;;
46348;SDS011;32057;47.830;19.046;2023-03-12T09:52:28;2.08;;;1.77;;
46348;SDS011;32057;47.830;19.046;2023-03-12T09:55:13;1.30;;;1.10;;
46348;SDS011;32057;47.830;19.046;2023-03-12T10:00:13;0.88;;;0.88;;
46348;SDS011;32057;47.830;19.046;2023-03-12T10:05:41;1.17;;;1.15;;
46348;SDS011;32057;47.830;19.046;2023-03-12T10:08:22;1.70;;;1.23;;
46348;SDS011;32057;47.830;19.046;2023-03-12T10:22:32;1.52;;;1.25;;
46348;SDS011;32057;47.830;19.046;2023-03-12T10:25:28;1.27;;;1.17;;
46348;SDS011;32057;47.830;19.046;2023-03-12T10:31:22;1.55;;;0.98;;
46348;SDS011;32057;47.830;19.046;2023-03-12T10:33:46;1.55;;;1.45;;
46348;SDS011;32057;47.830;19.046;2023-03-12T10:36:20;1.00;;;1.00;;
46348;SDS011;32057;47.830;19.046;2023-03-12T10:38:49;1.20;;;1.05;;
46348;SDS011;32057;47.830;19.046;2023-03-12T10:41:15;1.13;;;0.90;;
46348;SDS011;32057;47.830;19.046;2023-03-12T10:43:45;2.22;;;1.23;;
46348;SDS011;32057;47.830;19.046;2023-03-12T10:48:39;0.68;;;0.68;;
46348;SDS011;32057;47.830;19.046;2023-03-12T10:51:11;1.92;;;1.00;;
46348;SDS011;32057;47.830;19.046;2023-03-12T10:53:37;6.38;;;0.70;;
46348;SDS011;32057;47.830;19.046;2023-03-12T11:01:06;1.33;;;0.93;;
46348;SDS011;32057;47.830;19.046;2023-03-12T11:03:43;0.70;;;0.70;;
46348;SDS011;32057;47.830;19.046;2023-03-12T11:06:24;1.25;;;1.10;;
46348;SDS011;32057;47.830;19.046;2023-03-12T11:09:14;0.63;;;0.63;;
46348;SDS011;32057;47.830;19.046;2023-03-12T11:11:43;0.52;;;0.52;;
46348;SDS011;32057;47.830;19.046;2023-03-12T11:14:15;1.05;;;0.82;;
46348;SDS011;32057;47.830;19.046;2023-03-12T11:16:41;0.82;;;0.75;;
46348;SDS011;32057;47.830;19.046;2023-03-12T11:19:09;0.60;;;0.60;;
46348;SDS011;32057;47.830;19.046;2023-03-12T11:21:38;0.90;;;0.88;;
46348;SDS011;32057;47.830;19.046;2023-03-12T11:24:10;0.50;;;0.43;;
46348;SDS011;32057;47.830;19.046;2023-03-12T11:27:13;0.98;;;0.90;;
46348;SDS011;32057;47.830;19.046;2023-03-12T11:29:38;1.50;;;0.82;;
46348;SDS011;32057;47.830;19.046;2023-03-12T11:34:42;1.10;;;1.00;;
46348;SDS011;32057;47.830;19.046;2023-03-12T11:37:13;2.38;;;1.05;;
46348;SDS011;32057;47.830;19.046;2023-03-12T11:42:15;2.45;;;1.00;;
46348;SDS011;32057;47.830;19.046;2023-03-12T11:58:22;5.40;;;1.77;;
46348;SDS011;32057;47.830;19.046;2023-03-12T12:12:13;1.75;;;1.05;;
46348;SDS011;32057;47.830;19.046;2023-03-12T12:25:50;1.77;;;1.52;;
46348;SDS011;32057;47.830;19.046;2023-03-12T12:31:22;0.80;;;0.80;;
46348;SDS011;32057;47.830;19.046;2023-03-12T12:36:49;0.60;;;0.60;;
46348;SDS011;32057;47.830;19.046;2023-03-12T12:41:56;0.85;;;0.85;;
46348;SDS011;32057;47.830;19.046;2023-03-12T12:44:26;0.70;;;0.70;;
46348;SDS011;32057;47.830;19.046;2023-03-12T12:47:08;2.17;;;1.63;;
46348;SDS011;32057;47.830;19.046;2023-03-12T12:49:42;1.10;;;1.00;;
46348;SDS011;32057;47.830;19.046;2023-03-12T12:52:15;0.60;;;0.60;;
46348;SDS011;32057;47.830;19.046;2023-03-12T12:57:43;1.10;;;0.82;;
46348;SDS011;32057;47.830;19.046;2023-03-12T13:03:10;0.95;;;0.90;;
46348;SDS011;32057;47.830;19.046;2023-03-12T13:05:58;1.33;;;1.23;;
46348;SDS011;32057;47.830;19.046;2023-03-12T13:09:12;1.15;;;1.00;;
46348;SDS011;32057;47.830;19.046;2023-03-12T13:11:25;1.70;;;0.85;;
46348;SDS011;32057;47.830;19.046;2023-03-12T13:16:32;0.98;;;0.98;;
46348;SDS011;32057;47.830;19.046;2023-03-12T13:18:58;0.70;;;0.68;;
46348;SDS011;32057;47.830;19.046;2023-03-12T13:21:34;0.75;;;0.75;;
46348;SDS011;32057;47.830;19.046;2023-03-12T13:24:18;3.42;;;0.75;;
46348;SDS011;32057;47.830;19.046;2023-03-12T13:29:21;1.02;;;0.98;;
46348;SDS011;32057;47.830;19.046;2023-03-12T13:31:47;1.50;;;1.40;;
46348;SDS011;32057;47.830;19.046;2023-03-12T13:36:42;0.95;;;0.95;;
46348;SDS011;32057;47.830;19.046;2023-03-12T13:41:45;0.70;;;0.70;;
46348;SDS011;32057;47.830;19.046;2023-03-12T13:44:27;1.50;;;1.40;;
46348;SDS011;32057;47.830;19.046;2023-03-12T13:49:22;0.55;;;0.55;;
46348;SDS011;32057;47.830;19.046;2023-03-12T13:51:53;1.52;;;0.90;;
46348;SDS011;32057;47.830;19.046;2023-03-12T13:54:41;0.63;;;0.55;;
46348;SDS011;32057;47.830;19.046;2023-03-12T13:57:11;1.02;;;0.93;;
46348;SDS011;32057;47.830;19.046;2023-03-12T13:59:48;0.90;;;0.90;;
46348;SDS011;32057;47.830;19.046;2023-03-12T14:02:23;0.70;;;0.70;;
46348;SDS011;32057;47.830;19.046;2023-03-12T14:04:52;1.52;;;0.70;;
46348;SDS011;32057;47.830;19.046;2023-03-12T14:15:17;1.20;;;1.05;;
46348;SDS011;32057;47.830;19.046;2023-03-12T14:17:58;1.75;;;0.70;;
46348;SDS011;32057;47.830;19.046;2023-03-12T14:20:26;0.75;;;0.73;;
46348;SDS011;32057;47.830;19.046;2023-03-12T14:22:57;0.95;;;0.70;;
46348;SDS011;32057;47.830;19.046;2023-03-12T14:25:37;0.68;;;0.68;;
46348;SDS011;32057;47.830;19.046;2023-03-12T14:28:12;1.15;;;0.88;;
46348;SDS011;32057;47.830;19.046;2023-03-12T14:36:18;2.42;;;1.23;;
46348;SDS011;32057;47.830;19.046;2023-03-12T14:38:47;1.80;;;1.15;;
46348;SDS011;32057;47.830;19.046;2023-03-12T14:43:42;1.67;;;1.58;;
46348;SDS011;32057;47.830;19.046;2023-03-12T14:46:15;1.52;;;0.90;;
46348;SDS011;32057;47.830;19.046;2023-03-12T14:48:42;1.00;;;0.88;;
46348;SDS011;32057;47.830;19.046;2023-03-12T14:51:25;1.92;;;1.10;;
46348;SDS011;32057;47.830;19.046;2023-03-12T14:53:53;0.88;;;0.85;;
46348;SDS011;32057;47.830;19.046;2023-03-12T14:56:37;1.33;;;1.02;;
46348;SDS011;32057;47.830;19.046;2023-03-12T14:59:22;0.88;;;0.80;;
46348;SDS011;32057;47.830;19.046;2023-03-12T15:01:57;0.77;;;0.77;;
46348;SDS011;32057;47.830;19.046;2023-03-12T15:04:28;0.75;;;0.70;;
46348;SDS011;32057;47.830;19.046;2023-03-12T15:06:58;4.38;;;1.02;;
46348;SDS011;32057;47.830;19.046;2023-03-12T15:09:28;5.40;;;0.95;;
46348;SDS011;32057;47.830;19.046;2023-03-12T15:11:56;1.15;;;1.05;;
46348;SDS011;32057;47.830;19.046;2023-03-12T15:14:25;1.80;;;1.13;;
46348;SDS011;32057;47.830;19.046;2023-03-12T15:16:53;1.08;;;0.98;;
46348;SDS011;32057;47.830;19.046;2023-03-12T15:19:22;1.13;;;0.70;;
46348;SDS011;32057;47.830;19.046;2023-03-12T15:21:55;1.05;;;0.93;;
46348;SDS011;32057;47.830;19.046;2023-03-12T15:24:21;0.75;;;0.75;;
46348;SDS011;32057;47.830;19.046;2023-03-12T15:26:47;1.05;;;1.00;;
46348;SDS011;32057;47.830;19.046;2023-03-12T15:31:42;0.80;;;0.80;;
46348;SDS011;32057;47.830;19.046;2023-03-12T15:34:10;2.88;;;1.63;;
46348;SDS011;32057;47.830;19.046;2023-03-12T15:36:39;1.38;;;1.27;;
46348;SDS011;32057;47.830;19.046;2023-03-12T15:39:13;1.50;;;1.13;;
46348;SDS011;32057;47.830;19.046;2023-03-12T15:41:50;3.55;;;1.35;;
46348;SDS011;32057;47.830;19.046;2023-03-12T15:44:20;1.55;;;0.95;;
46348;SDS011;32057;47.830;19.046;2023-03-12T15:46:49;1.33;;;1.00;;
46348;SDS011;32057;47.830;19.046;2023-03-12T15:49:22;0.75;;;0.55;;
46348;SDS011;32057;47.830;19.046;2023-03-12T15:51:58;1.00;;;1.00;;
46348;SDS011;32057;47.830;19.046;2023-03-12T15:54:27;2.00;;;1.08;;
46348;SDS011;32057;47.830;19.046;2023-03-12T15:56:53;6.22;;;1.42;;
46348;SDS011;32057;47.830;19.046;2023-03-12T15:59:34;1.08;;;0.88;;
46348;SDS011;32057;47.830;19.046;2023-03-12T16:02:00;1.63;;;1.00;;
46348;SDS011;32057;47.830;19.046;2023-03-12T16:04:25;1.42;;;1.33;;
46348;SDS011;32057;47.830;19.046;2023-03-12T16:06:51;1.45;;;1.05;;
46348;SDS011;32057;47.830;19.046;2023-03-12T16:09:18;1.98;;;1.73;;
46348;SDS011;32057;47.830;19.046;2023-03-12T16:11:48;2.30;;;1.10;;
46348;SDS011;32057;47.830;19.046;2023-03-12T16:16:51;1.13;;;0.88;;
46348;SDS011;32057;47.830;19.046;2023-03-12T16:19:18;1.48;;;0.82;;
46348;SDS011;32057;47.830;19.046;2023-03-12T16:21:45;1.98;;;1.27;;
46348;SDS011;32057;47.830;19.046;2023-03-12T16:24:11;2.10;;;1.70;;
46348;SDS011;32057;47.830;19.046;2023-03-12T16:29:18;3.63;;;2.83;;
46348;SDS011;32057;47.830;19.046;2023-03-12T16:31:49;2.75;;;2.03;;
46348;SDS011;32057;47.830;19.046;2023-03-12T16:34:18;7.88;;;3.95;;
46348;SDS011;32057;47.830;19.046;2023-03-12T16:36:43;6.07;;;3.55;;
46348;SDS011;32057;47.830;19.046;2023-03-12T16:39:09;3.25;;;2.95;;
46348;SDS011;32057;47.830;19.046;2023-03-12T16:41:34;2.40;;;2.03;;
46348;SDS011;32057;47.830;19.046;2023-03-12T16:44:00;17.08;;;2.75;;
46348;SDS011;32057;47.830;19.046;2023-03-12T16:46:28;3.70;;;2.10;;
46348;SDS011;32057;47.830;19.046;2023-03-12T16:48:58;3.28;;;2.65;;
46348;SDS011;32057;47.830;19.046;2023-03-12T16:51:23;18.85;;;7.47;;
46348;SDS011;32057;47.830;19.046;2023-03-12T16:53:50;3.75;;;2.20;;
46348;SDS011;32057;47.830;19.046;2023-03-12T16:56:16;5.97;;;2.80;;